Time;durP1;ratioP1;P1;durP2;ratioP2;P2;SDS_P1;SDS_P2;PMS_P1;PMS_P2;Temp;Humidity;BMP_temperature;BMP_pressure;BME280_temperature;BME280_humidity;BME280_pressure;Samples;Min_cycle;Max_cycle;Signal;HPM_P1;HPM_P2
2021/04/08 00:00:46;;;;;;;9.10;1.37;;;;;;;;;;4983606;28;39839;-78
2021/04/08 00:03:12;;;;;;;10.30;1.17;;;;;;;;;;5001579;28;39946;-78
2021/04/08 00:05:39;;;;;;;11.33;1.97;;;;;;;;;;4988454;28;36019;-78
2021/04/08 00:08:05;;;;;;;7.43;1.53;;;;;;;;;;4994914;28;40298;-78
2021/04/08 00:10:32;;;;;;;8.23;1.27;;;;;;;;;;4984362;28;38374;-78
2021/04/08 00:12:58;;;;;;;11.97;2.70;;;;;;;;;;5003899;28;38869;-78
2021/04/08 00:15:25;;;;;;;6.47;1.53;;;;;;;;;;4998701;28;37374;-77
2021/04/08 00:17:51;;;;;;;9.00;1.40;;;;;;;;;;4999362;28;40102;-77
2021/04/08 00:20:19;;;;;;;8.23;1.10;;;;;;;;;;4981708;28;38626;-77
2021/04/08 00:22:46;;;;;;;7.90;1.27;;;;;;;;;;4985431;28;39136;-77
2021/04/08 00:25:13;;;;;;;10.23;1.37;;;;;;;;;;4996436;28;37138;-78
2021/04/08 00:27:40;;;;;;;7.40;1.20;;;;;;;;;;4985063;28;40887;-78
2021/04/08 00:30:06;;;;;;;4.77;1.00;;;;;;;;;;4995725;28;37629;-77
2021/04/08 00:32:33;;;;;;;10.53;1.70;;;;;;;;;;4979807;28;38347;-78
2021/04/08 00:34:59;;;;;;;7.33;1.63;;;;;;;;;;4993658;28;35926;-77
2021/04/08 00:37:25;;;;;;;9.73;1.30;;;;;;;;;;4973649;28;40253;-78
2021/04/08 00:39:52;;;;;;;11.47;2.20;;;;;;;;;;4974288;28;39356;-78
2021/04/08 00:42:18;;;;;;;5.73;0.90;;;;;;;;;;4988869;28;39456;-79
2021/04/08 00:44:45;;;;;;;7.10;1.27;;;;;;;;;;4995451;28;36806;-78
2021/04/08 00:47:11;;;;;;;7.77;1.13;;;;;;;;;;4993372;28;39609;-78
2021/04/08 00:49:37;;;;;;;9.50;1.53;;;;;;;;;;4995267;28;39335;-78
2021/04/08 00:52:04;;;;;;;11.07;1.43;;;;;;;;;;4975587;28;39273;-79
2021/04/08 00:54:30;;;;;;;8.80;1.47;;;;;;;;;;4995514;28;37472;-78
2021/04/08 00:56:57;;;;;;;10.20;1.47;;;;;;;;;;4994630;28;39712;-78
2021/04/08 00:59:23;;;;;;;12.83;1.60;;;;;;;;;;4994261;28;38208;-78
2021/04/08 01:01:51;;;;;;;7.90;1.10;;;;;;;;;;4977885;28;38102;-79
2021/04/08 01:04:17;;;;;;;7.50;1.53;;;;;;;;;;4978015;28;37182;-78
2021/04/08 01:06:44;;;;;;;8.97;1.17;;;;;;;;;;4976770;28;38448;-79
2021/04/08 01:09:10;;;;;;;7.80;1.30;;;;;;;;;;4991026;28;39076;-78
2021/04/08 01:11:37;;;;;;;5.73;1.37;;;;;;;;;;4993312;28;38638;-78
2021/04/08 01:14:03;;;;;;;6.97;1.23;;;;;;;;;;4994099;28;34659;-78
2021/04/08 01:16:36;;;;;;;7.27;1.57;;;;;;;;;;4990186;28;40548;-79
2021/04/08 01:19:21;;;;;;;10.93;1.70;;;;;;;;;;4991156;28;39302;-78
2021/04/08 01:22:05;;;;;;;6.00;1.30;;;;;;;;;;4995795;28;40057;-78
2021/04/08 01:24:32;;;;;;;8.30;1.30;;;;;;;;;;4993807;28;47515;-78
2021/04/08 01:27:10;;;;;;;11.43;1.80;;;;;;;;;;4988632;28;39117;-79
2021/04/08 01:29:39;;;;;;;10.37;2.10;;;;;;;;;;4979050;28;49115;-79
2021/04/08 01:32:07;;;;;;;11.17;1.20;;;;;;;;;;4993681;28;39167;-79
2021/04/08 01:34:34;;;;;;;4.57;1.33;;;;;;;;;;4994558;28;38844;-78
2021/04/08 01:37:01;;;;;;;10.73;2.33;;;;;;;;;;4980155;28;40655;-79
2021/04/08 01:39:28;;;;;;;4.00;1.13;;;;;;;;;;4981074;28;50651;-78
2021/04/08 01:41:55;;;;;;;6.33;1.17;;;;;;;;;;4980279;28;38608;-78
2021/04/08 01:44:23;;;;;;;2.77;1.27;;;;;;;;;;4979303;28;38074;-79
2021/04/08 01:46:59;;;;;;;5.60;1.27;;;;;;;;;;4977694;28;38851;-79
2021/04/08 01:49:31;;;;;;;9.77;1.00;;;;;;;;;;4977647;28;38096;-79
2021/04/08 01:51:57;;;;;;;4.50;1.00;;;;;;;;;;4995229;28;39928;-78
2021/04/08 01:54:26;;;;;;;4.93;1.07;;;;;;;;;;4999631;28;37360;-77
2021/04/08 01:56:55;;;;;;;4.23;1.10;;;;;;;;;;4991259;28;38028;-78
2021/04/08 01:59:22;;;;;;;5.83;1.00;;;;;;;;;;4996269;28;40400;-79
2021/04/08 02:01:49;;;;;;;4.37;1.40;;;;;;;;;;5000868;28;38539;-78
2021/04/08 02:04:15;;;;;;;3.90;0.90;;;;;;;;;;4994815;28;37719;-79
2021/04/08 02:06:43;;;;;;;4.70;1.07;;;;;;;;;;4995235;28;39043;-78
2021/04/08 02:09:10;;;;;;;5.67;1.00;;;;;;;;;;4987365;28;37687;-78
2021/04/08 02:11:37;;;;;;;3.27;0.80;;;;;;;;;;4974071;28;38767;-78
2021/04/08 02:14:04;;;;;;;5.43;1.13;;;;;;;;;;4982601;28;37033;-78
2021/04/08 02:16:30;;;;;;;3.17;0.90;;;;;;;;;;4993474;28;40056;-78
2021/04/08 02:18:58;;;;;;;6.27;1.20;;;;;;;;;;4976728;28;36425;-78
2021/04/08 02:21:26;;;;;;;6.23;1.00;;;;;;;;;;4992480;28;38382;-78
2021/04/08 02:23:52;;;;;;;5.90;1.17;;;;;;;;;;4975220;28;37708;-78
2021/04/08 02:26:19;;;;;;;2.43;1.23;;;;;;;;;;4988095;28;40818;-78
2021/04/08 02:28:46;;;;;;;8.57;1.40;;;;;;;;;;4991999;28;39810;-78
2021/04/08 02:31:13;;;;;;;7.07;1.20;;;;;;;;;;4979244;28;38266;-78
2021/04/08 02:33:39;;;;;;;4.77;1.57;;;;;;;;;;4979135;28;37699;-78
2021/04/08 02:36:06;;;;;;;8.40;1.30;;;;;;;;;;4986818;28;39502;-78
2021/04/08 02:38:33;;;;;;;3.83;1.17;;;;;;;;;;4976349;28;36840;-77
2021/04/08 02:41:00;;;;;;;4.13;1.50;;;;;;;;;;4993481;28;38563;-78
2021/04/08 02:43:27;;;;;;;4.53;1.20;;;;;;;;;;4976128;28;37980;-77
2021/04/08 02:45:53;;;;;;;4.50;1.10;;;;;;;;;;4979189;28;39610;-77
2021/04/08 02:48:22;;;;;;;4.27;1.00;;;;;;;;;;4989987;28;39071;-78
2021/04/08 02:50:52;;;;;;;10.10;1.90;;;;;;;;;;4991332;28;39984;-78
2021/04/08 02:53:25;;;;;;;4.00;1.13;;;;;;;;;;4976400;28;37656;-79
2021/04/08 02:55:58;;;;;;;4.30;1.05;;;;;;;;;;4993478;28;42399;-79
2021/04/08 02:58:24;;;;;;;3.13;0.93;;;;;;;;;;4981544;28;39149;-79
2021/04/08 03:00:56;;;;;;;4.53;1.67;;;;;;;;;;4985924;28;37130;-79
2021/04/08 03:03:24;;;;;;;3.47;1.00;;;;;;;;;;4991731;28;38564;-79
2021/04/08 03:05:51;;;;;;;5.07;1.03;;;;;;;;;;4973336;28;40306;-79
2021/04/08 03:08:19;;;;;;;2.63;0.93;;;;;;;;;;4996094;28;39130;-80
2021/04/08 03:10:46;;;;;;;5.57;1.33;;;;;;;;;;4980663;28;37762;-79
2021/04/08 03:13:13;;;;;;;3.80;1.00;;;;;;;;;;4975127;28;37676;-79
2021/04/08 03:15:40;;;;;;;4.53;1.20;;;;;;;;;;4978582;28;38815;-79
2021/04/08 03:18:13;;;;;;;5.00;1.27;;;;;;;;;;4989219;28;37327;-79
2021/04/08 03:20:39;;;;;;;;;;;;;;;;;;4995091;28;39142;-78
2021/04/08 03:23:07;;;;;;;2.97;1.10;;;;;;;;;;4993365;28;37770;-79
2021/04/08 03:25:34;;;;;;;4.60;1.03;;;;;;;;;;5002156;28;39962;-79
2021/04/08 03:28:00;;;;;;;5.80;1.40;;;;;;;;;;4995733;28;40294;-78
2021/04/08 03:30:27;;;;;;;3.90;1.33;;;;;;;;;;4976963;28;47705;-78
2021/04/08 03:32:57;;;;;;;4.10;1.10;;;;;;;;;;4997555;28;37216;-78
2021/04/08 03:35:23;;;;;;;5.63;1.23;;;;;;;;;;4992462;28;39951;-78
2021/04/08 03:37:50;;;;;;;3.07;1.30;;;;;;;;;;4992883;28;39648;-78
2021/04/08 03:40:17;;;;;;;1.33;0.90;;;;;;;;;;4995952;28;39446;-78
2021/04/08 03:42:44;;;;;;;2.83;0.90;;;;;;;;;;4994926;28;36231;-78
2021/04/08 03:45:11;;;;;;;4.00;1.63;;;;;;;;;;4978097;28;38863;-79
2021/04/08 03:47:41;;;;;;;4.00;1.10;;;;;;;;;;4983179;28;38281;-79
2021/04/08 03:50:09;;;;;;;6.53;1.20;;;;;;;;;;4981988;28;39353;-78
2021/04/08 03:52:37;;;;;;;4.23;1.40;;;;;;;;;;4995133;28;38515;-78
2021/04/08 03:55:04;;;;;;;3.87;1.50;;;;;;;;;;5002982;28;40817;-78
2021/04/08 03:57:30;;;;;;;2.30;1.10;;;;;;;;;;4982387;28;39080;-79
2021/04/08 03:59:57;;;;;;;7.33;1.70;;;;;;;;;;4976941;28;37853;-78
2021/04/08 04:02:25;;;;;;;5.93;1.73;;;;;;;;;;4992638;28;38322;-79
2021/04/08 04:04:52;;;;;;;5.57;1.50;;;;;;;;;;4983376;28;38601;-79
2021/04/08 04:07:20;;;;;;;6.87;1.40;;;;;;;;;;4992428;28;39118;-78
2021/04/08 04:09:46;;;;;;;4.13;1.77;;;;;;;;;;4991236;28;38828;-79
2021/04/08 04:12:14;;;;;;;6.30;1.30;;;;;;;;;;4993509;28;38431;-78
2021/04/08 04:14:43;;;;;;;3.30;1.43;;;;;;;;;;4977520;28;39054;-79
2021/04/08 04:17:24;;;;;;;5.17;1.50;;;;;;;;;;4978724;28;38615;-79
2021/04/08 04:19:51;;;;;;;2.87;1.40;;;;;;;;;;4974906;28;39060;-79
2021/04/08 04:22:17;;;;;;;5.33;1.40;;;;;;;;;;4974632;28;37190;-78
2021/04/08 04:24:44;;;;;;;6.50;1.73;;;;;;;;;;4993459;28;40750;-78
2021/04/08 04:27:10;;;;;;;3.77;1.83;;;;;;;;;;4991043;28;39537;-78
2021/04/08 04:29:36;;;;;;;3.60;1.47;;;;;;;;;;4996777;28;38196;-77
2021/04/08 04:32:03;;;;;;;5.40;1.43;;;;;;;;;;4979544;28;38058;-78
2021/04/08 04:34:29;;;;;;;5.10;1.90;;;;;;;;;;4993638;28;40289;-78
2021/04/08 04:36:56;;;;;;;3.00;1.70;;;;;;;;;;4989046;28;38764;-78
2021/04/08 04:39:22;;;;;;;4.07;1.63;;;;;;;;;;4993921;28;38418;-78
2021/04/08 04:41:49;;;;;;;4.33;2.03;;;;;;;;;;4975657;28;36683;-78
2021/04/08 04:44:15;;;;;;;3.77;1.80;;;;;;;;;;4976983;28;39014;-77
2021/04/08 04:46:41;;;;;;;2.43;1.67;;;;;;;;;;4977296;28;38205;-77
2021/04/08 04:49:08;;;;;;;5.17;1.93;;;;;;;;;;4975032;28;39188;-78
2021/04/08 04:51:34;;;;;;;5.17;2.37;;;;;;;;;;4978948;28;35230;-77
2021/04/08 04:54:01;;;;;;;7.53;1.80;;;;;;;;;;4994641;28;41463;-78
2021/04/08 04:56:27;;;;;;;8.07;2.10;;;;;;;;;;4982257;28;47228;-79
2021/04/08 04:58:53;;;;;;;6.57;2.27;;;;;;;;;;4987277;28;37840;-77
2021/04/08 05:01:20;;;;;;;12.77;2.40;;;;;;;;;;4991576;28;38602;-78
2021/04/08 05:03:46;;;;;;;4.30;2.37;;;;;;;;;;5002844;28;40415;-77
2021/04/08 05:06:12;;;;;;;8.33;2.90;;;;;;;;;;4983236;28;39350;-77
2021/04/08 05:08:39;;;;;;;8.83;3.10;;;;;;;;;;5001777;28;36820;-77
2021/04/08 05:11:05;;;;;;;5.70;2.40;;;;;;;;;;4985115;28;36556;-76
2021/04/08 05:13:31;;;;;;;7.63;3.67;;;;;;;;;;5000508;28;40395;-77
2021/04/08 05:15:58;;;;;;;7.70;2.77;;;;;;;;;;4993026;28;38468;-76
2021/04/08 05:18:24;;;;;;;5.70;2.50;;;;;;;;;;5001844;28;38747;-77
2021/04/08 05:20:51;;;;;;;5.03;2.67;;;;;;;;;;5002901;28;37470;-77
2021/04/08 05:23:17;;;;;;;5.07;2.60;;;;;;;;;;4979184;28;39259;-77
2021/04/08 05:25:43;;;;;;;8.90;2.67;;;;;;;;;;4982759;28;38438;-77
2021/04/08 05:28:10;;;;;;;5.80;2.73;;;;;;;;;;4982505;28;39641;-79
2021/04/08 05:30:37;;;;;;;4.70;2.90;;;;;;;;;;4983800;28;37163;-79
2021/04/08 05:33:03;;;;;;;5.47;2.87;;;;;;;;;;4983357;28;38725;-77
2021/04/08 05:35:30;;;;;;;5.43;2.63;;;;;;;;;;5002213;28;39018;-78
2021/04/08 05:37:57;;;;;;;9.60;3.20;;;;;;;;;;4985404;28;38593;-77
2021/04/08 05:40:23;;;;;;;7.73;2.60;;;;;;;;;;5002211;28;38793;-79
2021/04/08 05:42:50;;;;;;;7.93;2.70;;;;;;;;;;4974677;28;39252;-77
2021/04/08 05:45:18;;;;;;;7.37;2.60;;;;;;;;;;4984692;28;39344;-76
2021/04/08 05:47:44;;;;;;;4.07;2.57;;;;;;;;;;4983122;28;36884;-77
2021/04/08 05:50:12;;;;;;;7.37;2.53;;;;;;;;;;5006570;28;37551;-77
2021/04/08 05:52:38;;;;;;;4.10;2.20;;;;;;;;;;4982454;28;39758;-76
2021/04/08 05:55:05;;;;;;;7.43;2.50;;;;;;;;;;4999499;28;38637;-76
2021/04/08 05:57:32;;;;;;;4.73;2.30;;;;;;;;;;4984427;28;38817;-79
2021/04/08 05:59:58;;;;;;;8.83;2.30;;;;;;;;;;4988498;28;37582;-77
2021/04/08 06:02:25;;;;;;;8.83;2.70;;;;;;;;;;4998013;28;40330;-77
2021/04/08 06:04:51;;;;;;;3.43;1.90;;;;;;;;;;4998780;28;39064;-77
2021/04/08 06:07:18;;;;;;;5.87;2.13;;;;;;;;;;4986619;28;38205;-77
2021/04/08 06:09:44;;;;;;;6.13;3.13;;;;;;;;;;5022841;28;37266;-78
2021/04/08 06:12:11;;;;;;;5.27;2.07;;;;;;;;;;4990529;28;39728;-77
2021/04/08 06:14:38;;;;;;;4.27;2.00;;;;;;;;;;4994059;28;39342;-78
2021/04/08 06:17:05;;;;;;;7.93;2.53;;;;;;;;;;4985195;28;39866;-77
2021/04/08 06:19:32;;;;;;;6.30;2.30;;;;;;;;;;5012174;28;36806;-77
2021/04/08 06:21:59;;;;;;;7.20;2.00;;;;;;;;;;5020844;28;39513;-78
2021/04/08 06:24:25;;;;;;;5.83;2.20;;;;;;;;;;5005918;28;39260;-77
2021/04/08 06:26:52;;;;;;;7.00;2.13;;;;;;;;;;5000393;28;39448;-77
2021/04/08 06:29:18;;;;;;;8.97;3.93;;;;;;;;;;4985958;28;37900;-77
2021/04/08 06:31:45;;;;;;;8.73;2.60;;;;;;;;;;4988770;28;39900;-77
2021/04/08 06:34:11;;;;;;;7.37;2.43;;;;;;;;;;4997173;28;39024;-77
2021/04/08 06:36:38;;;;;;;6.47;2.57;;;;;;;;;;4986258;28;37897;-77
2021/04/08 06:39:04;;;;;;;14.40;2.60;;;;;;;;;;4987007;28;36806;-77
2021/04/08 06:41:31;;;;;;;5.00;2.23;;;;;;;;;;4990105;28;39531;-77
2021/04/08 06:43:59;;;;;;;8.60;3.30;;;;;;;;;;4984570;28;38171;-76
2021/04/08 06:46:27;;;;;;;6.37;2.73;;;;;;;;;;5000668;28;41996;-77
2021/04/08 06:49:02;;;;;;;5.43;2.53;;;;;;;;;;5001281;28;38702;-77
2021/04/08 06:51:32;;;;;;;6.53;2.57;;;;;;;;;;4984602;28;48259;-77
2021/04/08 06:54:00;;;;;;;8.93;3.13;;;;;;;;;;4984528;28;38753;-77
2021/04/08 06:56:30;;;;;;;8.67;2.80;;;;;;;;;;4982036;28;39107;-77
2021/04/08 06:58:57;;;;;;;9.33;3.13;;;;;;;;;;4970924;28;36524;-77
2021/04/08 07:01:25;;;;;;;4.07;2.70;;;;;;;;;;4982181;28;38605;-76
2021/04/08 07:03:52;;;;;;;7.07;2.80;;;;;;;;;;5010097;28;39203;-77
2021/04/08 07:06:18;;;;;;;9.93;3.20;;;;;;;;;;5000389;28;38515;-77
2021/04/08 07:08:45;;;;;;;12.80;3.47;;;;;;;;;;4987007;28;37741;-77
2021/04/08 07:11:12;;;;;;;8.90;3.57;;;;;;;;;;4987250;28;39328;-78
2021/04/08 07:13:40;;;;;;;9.67;2.77;;;;;;;;;;5007837;28;39098;-77
2021/04/08 07:16:09;;;;;;;9.00;2.90;;;;;;;;;;4989075;28;38238;-80
2021/04/08 07:18:35;;;;;;;8.20;3.03;;;;;;;;;;5004507;28;37207;-77
2021/04/08 07:21:01;;;;;;;9.57;2.70;;;;;;;;;;4993425;28;38780;-77
2021/04/08 07:23:28;;;;;;;8.73;3.07;;;;;;;;;;4986145;28;47067;-79
2021/04/08 07:26:08;;;;;;;6.80;2.90;;;;;;;;;;5006325;28;39525;-77
2021/04/08 07:28:36;;;;;;;10.97;3.20;;;;;;;;;;5008468;28;48890;-77
2021/04/08 07:31:21;;;;;;;6.13;2.77;;;;;;;;;;5004272;28;39733;-78
2021/04/08 07:33:47;;;;;;;7.23;3.20;;;;;;;;;;4998223;28;47092;-77
2021/04/08 07:36:43;;;;;;;9.07;3.30;;;;;;;;;;4987982;28;39005;-77
2021/04/08 07:39:15;;;;;;;7.80;2.90;;;;;;;;;;4974547;28;36740;-77
2021/04/08 07:41:42;;;;;;;5.00;2.13;;;;;;;;;;4996356;28;38491;-77
2021/04/08 07:44:09;;;;;;;8.40;2.87;;;;;;;;;;5004939;28;37133;-78
2021/04/08 07:46:40;;;;;;;11.73;3.37;;;;;;;;;;5008456;28;38241;-76
2021/04/08 07:49:25;;;;;;;5.47;2.40;;;;;;;;;;5002223;28;36509;-77
2021/04/08 07:51:51;;;;;;;4.53;2.53;;;;;;;;;;5003094;28;39680;-77
2021/04/08 07:54:18;;;;;;;9.07;3.40;;;;;;;;;;5003663;28;40260;-77
2021/04/08 07:56:45;;;;;;;6.87;2.80;;;;;;;;;;5005116;28;39892;-78
2021/04/08 07:59:30;;;;;;;6.40;2.93;;;;;;;;;;4988298;28;36346;-77
2021/04/08 08:02:01;;;;;;;10.27;2.83;;;;;;;;;;5004301;28;39677;-80
2021/04/08 08:04:28;;;;;;;7.20;3.17;;;;;;;;;;4984669;28;46979;-80
2021/04/08 08:06:55;;;;;;;8.07;2.83;;;;;;;;;;4986515;28;39233;-79
2021/04/08 08:09:23;;;;;;;5.87;3.10;;;;;;;;;;4999827;28;37271;-79
2021/04/08 08:11:49;;;;;;;8.87;3.07;;;;;;;;;;4980558;28;39865;-77
2021/04/08 08:14:17;;;;;;;4.83;3.07;;;;;;;;;;5002360;28;39792;-77
2021/04/08 08:17:03;;;;;;;8.97;3.50;;;;;;;;;;4988508;28;39114;-78
2021/04/08 08:19:30;;;;;;;9.10;3.47;;;;;;;;;;5001988;28;47791;-78
2021/04/08 08:21:56;;;;;;;9.33;4.07;;;;;;;;;;4996054;28;40798;-80
2021/04/08 08:24:23;;;;;;;7.20;4.23;;;;;;;;;;5000589;28;39743;-78
2021/04/08 08:26:50;;;;;;;6.73;3.50;;;;;;;;;;4985890;28;39881;-80
2021/04/08 08:29:17;;;;;;;6.67;3.60;;;;;;;;;;4987330;28;37685;-79
2021/04/08 08:31:47;;;;;;;11.70;4.03;;;;;;;;;;4988370;28;40001;-79
2021/04/08 08:34:16;;;;;;;8.77;4.10;;;;;;;;;;5017002;28;37783;-80
2021/04/08 08:36:44;;;;;;;7.90;4.63;;;;;;;;;;5008301;28;38577;-80
2021/04/08 08:39:13;;;;;;;9.90;4.53;;;;;;;;;;4999693;28;37279;-80
2021/04/08 08:41:39;;;;;;;6.73;3.60;;;;;;;;;;4986729;28;39149;-80
2021/04/08 08:44:07;;;;;;;6.87;3.63;;;;;;;;;;5001879;28;38928;-80
2021/04/08 08:46:37;;;;;;;6.73;3.83;;;;;;;;;;4988264;28;38279;-79
2021/04/08 08:49:03;;;;;;;8.33;4.37;;;;;;;;;;5002069;28;36643;-80
2021/04/08 08:51:30;;;;;;;9.80;4.53;;;;;;;;;;4992911;28;39143;-80
2021/04/08 08:53:57;;;;;;;10.97;4.07;;;;;;;;;;4986784;28;40460;-81
2021/04/08 08:56:28;;;;;;;7.00;4.33;;;;;;;;;;4985282;28;38341;-80
2021/04/08 08:58:54;;;;;;;13.80;4.53;;;;;;;;;;5003222;28;37806;-80
2021/04/08 09:01:21;;;;;;;8.63;4.13;;;;;;;;;;4985871;28;38711;-80
2021/04/08 09:03:48;;;;;;;6.77;4.33;;;;;;;;;;4986165;28;38782;-80
2021/04/08 09:06:16;;;;;;;8.73;4.60;;;;;;;;;;5014600;28;38507;-80
2021/04/08 09:08:48;;;;;;;10.73;4.63;;;;;;;;;;4986152;28;37081;-80
2021/04/08 09:11:23;;;;;;;6.80;3.95;;;;;;;;;;5009933;28;39502;-80
2021/04/08 09:13:53;;;;;;;9.70;4.90;;;;;;;;;;5004618;28;38811;-78
2021/04/08 09:16:20;;;;;;;10.03;4.10;;;;;;;;;;4994251;28;37754;-80
2021/04/08 09:19:01;;;;;;;6.13;4.30;;;;;;;;;;4985341;28;37591;-80
2021/04/08 09:21:42;;;;;;;6.10;4.03;;;;;;;;;;4985628;28;46987;-80
2021/04/08 09:24:15;;;;;;;8.90;4.80;;;;;;;;;;5001485;28;39478;-80
2021/04/08 09:26:43;;;;;;;12.60;5.20;;;;;;;;;;4986778;28;39094;-80
2021/04/08 09:29:11;;;;;;;8.03;4.60;;;;;;;;;;4986466;28;36857;-79
2021/04/08 09:31:38;;;;;;;10.97;4.40;;;;;;;;;;4987966;28;38552;-79
2021/04/08 09:34:05;;;;;;;9.57;5.13;;;;;;;;;;5005825;28;39296;-80
2021/04/08 09:36:41;;;;;;;12.33;4.87;;;;;;;;;;4985643;28;40106;-79
2021/04/08 09:39:11;;;;;;;11.53;4.73;;;;;;;;;;4990363;28;37842;-79
2021/04/08 09:41:45;;;;;;;7.17;5.03;;;;;;;;;;4979315;28;38733;-80
2021/04/08 09:44:13;;;;;;;11.47;5.33;;;;;;;;;;4988148;28;38234;-80
2021/04/08 09:46:41;;;;;;;8.40;5.03;;;;;;;;;;4988938;28;38284;-80
2021/04/08 09:49:08;;;;;;;7.63;5.03;;;;;;;;;;4994086;28;36410;-79
2021/04/08 09:51:34;;;;;;;8.53;5.70;;;;;;;;;;4987295;28;39768;-79
2021/04/08 09:54:03;;;;;;;12.17;5.63;;;;;;;;;;5002630;28;39091;-79
2021/04/08 09:56:42;;;;;;;13.50;5.73;;;;;;;;;;5002029;28;47389;-79
2021/04/08 09:59:09;;;;;;;10.20;5.17;;;;;;;;;;4985193;28;38056;-79
2021/04/08 10:01:35;;;;;;;11.73;5.23;;;;;;;;;;4998327;28;37772;-80
2021/04/08 10:04:12;;;;;;;10.00;5.30;;;;;;;;;;4999715;28;38679;-79
2021/04/08 10:06:38;;;;;;;8.63;5.40;;;;;;;;;;4994623;28;49048;-79
2021/04/08 10:09:08;;;;;;;8.30;4.73;;;;;;;;;;5001578;28;38626;-79
2021/04/08 10:11:36;;;;;;;8.03;5.33;;;;;;;;;;4987536;28;39323;-79
2021/04/08 10:14:22;;;;;;;8.43;4.90;;;;;;;;;;5004019;28;39718;-79
2021/04/08 10:17:04;;;;;;;7.77;4.73;;;;;;;;;;5004646;28;38983;-79
2021/04/08 10:19:41;;;;;;;8.80;5.00;;;;;;;;;;4996076;28;48347;-80
2021/04/08 10:22:09;;;;;;;8.67;5.07;;;;;;;;;;4999634;28;37930;-79
2021/04/08 10:24:37;;;;;;;8.37;5.23;;;;;;;;;;4993332;28;38968;-80
2021/04/08 10:27:14;;;;;;;9.27;5.03;;;;;;;;;;4999947;28;38874;-79
2021/04/08 10:29:41;;;;;;;7.80;4.73;;;;;;;;;;4998406;28;38278;-79
2021/04/08 10:32:07;;;;;;;9.25;4.75;;;;;;;;;;5000766;28;39400;-79
2021/04/08 10:34:35;;;;;;;6.85;4.95;;;;;;;;;;5001093;28;38789;-80
2021/04/08 10:37:01;;;;;;;10.43;4.63;;;;;;;;;;5001145;28;38035;-80
2021/04/08 10:39:29;;;;;;;7.03;4.68;;;;;;;;;;4985225;28;47243;-79
2021/04/08 10:42:06;;;;;;;8.07;4.65;;;;;;;;;;4985776;28;38739;-79
2021/04/08 10:44:37;;;;;;;9.18;4.78;;;;;;;;;;4983102;28;47313;-79
2021/04/08 10:47:10;;;;;;;10.95;4.85;;;;;;;;;;4998616;28;39792;-80
2021/04/08 10:49:37;;;;;;;6.88;4.80;;;;;;;;;;4999673;28;36019;-80
2021/04/08 10:52:10;;;;;;;8.68;5.22;;;;;;;;;;4998990;28;40325;-79
2021/04/08 10:54:39;;;;;;;9.45;5.13;;;;;;;;;;4982640;28;39130;-79
2021/04/08 10:57:06;;;;;;;8.38;5.15;;;;;;;;;;4999852;28;39118;-79
2021/04/08 10:59:33;;;;;;;7.77;5.37;;;;;;;;;;5000377;28;37702;-79
2021/04/08 11:02:01;;;;;;;12.98;4.80;;;;;;;;;;4982949;28;39728;-80
2021/04/08 11:04:27;;;;;;;9.65;5.10;;;;;;;;;;4999623;28;47213;-80
2021/04/08 11:06:57;;;;;;;10.80;5.60;;;;;;;;;;5000943;28;37427;-79
2021/04/08 11:09:27;;;;;;;15.35;6.88;;;;;;;;;;4998601;28;36978;-80
2021/04/08 11:11:54;;;;;;;11.30;6.20;;;;;;;;;;4998572;28;41015;-79
2021/04/08 11:14:24;;;;;;;7.95;5.35;;;;;;;;;;4983377;28;39688;-79
2021/04/08 11:16:52;;;;;;;12.13;5.18;;;;;;;;;;5000380;28;38356;-80
2021/04/08 11:19:19;;;;;;;12.15;5.05;;;;;;;;;;4999450;28;37424;-80
2021/04/08 11:21:45;;;;;;;7.93;5.05;;;;;;;;;;5002407;28;39705;-78
2021/04/08 11:24:12;;;;;;;10.68;6.25;;;;;;;;;;4983851;28;38246;-76
2021/04/08 11:26:49;;;;;;;10.70;5.45;;;;;;;;;;4984133;28;37956;-77
2021/04/08 11:29:21;;;;;;;10.90;6.50;;;;;;;;;;4999234;28;36713;-77
2021/04/08 11:32:07;;;;;;;7.97;4.60;;;;;;;;;;4982995;28;39623;-77
2021/04/08 11:34:42;;;;;;;11.32;5.68;;;;;;;;;;4987552;28;48800;-76
2021/04/08 11:37:09;;;;;;;7.68;4.43;;;;;;;;;;4989330;28;38388;-77
2021/04/08 11:39:35;;;;;;;8.55;4.68;;;;;;;;;;5000595;28;38540;-78
2021/04/08 11:42:14;;;;;;;5.43;4.07;;;;;;;;;;4985548;28;40429;-76
2021/04/08 11:44:41;;;;;;;8.30;4.60;;;;;;;;;;4984548;28;38799;-77
2021/04/08 11:47:14;;;;;;;5.68;4.13;;;;;;;;;;4998529;28;38693;-77
2021/04/08 11:49:45;;;;;;;7.45;4.18;;;;;;;;;;5003070;28;36141;-76
2021/04/08 11:52:12;;;;;;;6.85;3.95;;;;;;;;;;5000814;28;37983;-76
2021/04/08 11:55:05;;;;;;;5.88;3.80;;;;;;;;;;4984523;28;38369;-76
2021/04/08 11:57:32;;;;;;;9.18;4.50;;;;;;;;;;4975654;28;47474;-77
2021/04/08 11:59:59;;;;;;;8.40;4.88;;;;;;;;;;4984387;28;36549;-76
2021/04/08 12:02:33;;;;;;;10.25;5.03;;;;;;;;;;4999648;28;39804;-76
2021/04/08 12:05:00;;;;;;;9.32;4.97;;;;;;;;;;5000085;28;39751;-76
2021/04/08 12:07:26;;;;;;;6.25;4.68;;;;;;;;;;4988502;28;39237;-76
2021/04/08 12:09:53;;;;;;;7.70;4.43;;;;;;;;;;4987506;28;35509;-77
2021/04/08 12:12:29;;;;;;;5.07;3.90;;;;;;;;;;4999531;28;41379;-77
2021/04/08 12:14:57;;;;;;;7.90;4.72;;;;;;;;;;4986031;28;39461;-79
2021/04/08 12:17:24;;;;;;;5.15;3.97;;;;;;;;;;4987587;28;38282;-80
2021/04/08 12:19:50;;;;;;;6.82;3.70;;;;;;;;;;4987583;28;35833;-80
2021/04/08 12:22:17;;;;;;;5.70;4.10;;;;;;;;;;5007577;28;39270;-81
2021/04/08 12:25:03;;;;;;;8.23;4.68;;;;;;;;;;5011145;28;39047;-82
2021/04/08 12:27:30;;;;;;;8.00;4.60;;;;;;;;;;5015026;28;47072;-81
2021/04/08 12:29:57;;;;;;;7.10;3.90;;;;;;;;;;5025516;28;37323;-81
2021/04/08 12:32:27;;;;;;;6.28;4.35;;;;;;;;;;5008920;28;38938;-81
2021/04/08 12:34:54;;;;;;;9.45;4.65;;;;;;;;;;5007880;28;39227;-81
2021/04/08 12:37:21;;;;;;;7.72;4.20;;;;;;;;;;5011388;28;36832;-80
2021/04/08 12:39:48;;;;;;;5.55;4.07;;;;;;;;;;4995128;28;38443;-81
2021/04/08 12:42:14;;;;;;;9.45;4.60;;;;;;;;;;5000552;28;39772;-80
2021/04/08 12:44:41;;;;;;;5.50;4.13;;;;;;;;;;5009178;28;38938;-81
2021/04/08 12:47:08;;;;;;;5.15;4.00;;;;;;;;;;5009132;28;39493;-81
2021/04/08 12:49:35;;;;;;;6.00;4.95;;;;;;;;;;5004072;28;38749;-81
2021/04/08 12:52:01;;;;;;;5.47;4.57;;;;;;;;;;4991380;28;38950;-80
2021/04/08 12:54:28;;;;;;;6.38;4.25;;;;;;;;;;4992326;28;48616;-81
2021/04/08 12:56:54;;;;;;;8.20;4.00;;;;;;;;;;5004484;28;37114;-81
2021/04/08 12:59:21;;;;;;;6.07;3.95;;;;;;;;;;4993799;28;37051;-81
2021/04/08 13:01:47;;;;;;;6.15;3.75;;;;;;;;;;4987478;28;38760;-80
2021/04/08 13:04:13;;;;;;;7.03;3.78;;;;;;;;;;4986116;28;38721;-80
2021/04/08 13:06:39;;;;;;;4.93;3.20;;;;;;;;;;4998569;28;37225;-80
2021/04/08 13:09:06;;;;;;;3.40;3.08;;;;;;;;;;4981862;28;35190;-80
2021/04/08 13:11:32;;;;;;;7.53;3.08;;;;;;;;;;4985153;28;39132;-80
2021/04/08 13:13:59;;;;;;;8.18;3.25;;;;;;;;;;4984717;28;38735;-79
2021/04/08 13:16:25;;;;;;;5.82;3.00;;;;;;;;;;4982290;28;38915;-79
2021/04/08 13:18:51;;;;;;;6.57;3.72;;;;;;;;;;4988316;28;36415;-80
2021/04/08 13:21:18;;;;;;;6.40;3.97;;;;;;;;;;4987454;28;36424;-79
2021/04/08 13:23:44;;;;;;;3.88;3.45;;;;;;;;;;5000585;28;39350;-79
2021/04/08 13:26:11;;;;;;;5.32;3.20;;;;;;;;;;5002969;28;38128;-79
2021/04/08 13:28:37;;;;;;;5.88;3.75;;;;;;;;;;4991055;28;37920;-78
2021/04/08 13:31:03;;;;;;;5.20;3.55;;;;;;;;;;4982861;28;40002;-79
2021/04/08 13:33:30;;;;;;;6.80;3.45;;;;;;;;;;5000772;28;38620;-78
2021/04/08 13:35:56;;;;;;;5.38;3.65;;;;;;;;;;5001030;28;38623;-79
2021/04/08 13:38:22;;;;;;;6.75;3.70;;;;;;;;;;5006584;28;37978;-78
2021/04/08 13:40:49;;;;;;;8.90;3.03;;;;;;;;;;4989692;28;39710;-77
2021/04/08 13:43:16;;;;;;;4.63;3.00;;;;;;;;;;5006071;28;37416;-77
2021/04/08 13:45:42;;;;;;;6.22;3.05;;;;;;;;;;4992228;28;38028;-77
2021/04/08 13:48:08;;;;;;;3.72;3.00;;;;;;;;;;4993435;28;37925;-78
2021/04/08 13:50:35;;;;;;;10.85;3.30;;;;;;;;;;5007968;28;40138;-77
2021/04/08 13:53:01;;;;;;;4.32;3.33;;;;;;;;;;5000263;28;38900;-77
2021/04/08 13:55:28;;;;;;;5.38;3.10;;;;;;;;;;4986971;28;49814;-77
2021/04/08 13:57:54;;;;;;;6.80;2.83;;;;;;;;;;4999803;28;38990;-79
2021/04/08 14:00:21;;;;;;;4.60;3.22;;;;;;;;;;5000573;28;38479;-79
2021/04/08 14:02:48;;;;;;;7.25;3.53;;;;;;;;;;4986835;28;38717;-79
2021/04/08 14:05:15;;;;;;;5.85;3.45;;;;;;;;;;4996197;28;39657;-79
2021/04/08 14:07:43;;;;;;;4.63;3.47;;;;;;;;;;5000743;28;37001;-79
2021/04/08 14:10:11;;;;;;;5.88;3.63;;;;;;;;;;4983665;28;39571;-79
2021/04/08 14:12:38;;;;;;;5.80;3.45;;;;;;;;;;4984639;28;37480;-79
2021/04/08 14:15:05;;;;;;;7.45;3.60;;;;;;;;;;4987636;28;38399;-78
2021/04/08 14:17:32;;;;;;;8.15;3.88;;;;;;;;;;4972797;28;37568;-79
2021/04/08 14:19:58;;;;;;;4.72;3.88;;;;;;;;;;4997457;28;40828;-79
2021/04/08 14:22:25;;;;;;;4.88;3.33;;;;;;;;;;4997123;28;38675;-79
2021/04/08 14:24:51;;;;;;;4.72;4.22;;;;;;;;;;4998640;28;41076;-79
2021/04/08 14:27:17;;;;;;;4.13;3.72;;;;;;;;;;4991488;28;37804;-77
2021/04/08 14:29:44;;;;;;;5.28;3.72;;;;;;;;;;5005674;28;38618;-77
2021/04/08 14:32:11;;;;;;;7.40;3.80;;;;;;;;;;5009828;28;38562;-77
2021/04/08 14:34:37;;;;;;;7.78;3.83;;;;;;;;;;4994915;28;39800;-77
2021/04/08 14:37:04;;;;;;;7.97;4.95;;;;;;;;;;4983552;28;36810;-77
2021/04/08 14:39:32;;;;;;;8.57;4.95;;;;;;;;;;4984231;28;39561;-77
2021/04/08 14:41:59;;;;;;;7.82;5.20;;;;;;;;;;4984436;28;37401;-77
2021/04/08 14:44:25;;;;;;;8.55;4.50;;;;;;;;;;4997555;28;40163;-77
2021/04/08 14:46:52;;;;;;;5.55;4.13;;;;;;;;;;5000707;28;37169;-77